Time;durP1;ratioP1;P1;durP2;ratioP2;P2;SDS_P1;SDS_P2;PMS_P1;PMS_P2;Temp;Humidity;BMP_temperature;BMP_pressure;BME280_temperature;BME280_humidity;BME280_pressure;Samples;Min_cycle;Max_cycle;Signal;HPM_P1;HPM_P2
2022/11/06 00:00:23;;;;;;;13.23;2.53;;;;;;;;;;5031377;28;20468;-61
2022/11/06 00:02:49;;;;;;;2.95;1.08;;;;;;;;;;5039231;28;20098;-62
2022/11/06 00:08:01;;;;;;;2.47;1.08;;;;;;;;;;5040124;28;20081;-60
2022/11/06 00:10:30;;;;;;;3.58;1.48;;;;;;;;;;5038860;28;20057;-63
2022/11/06 00:12:57;;;;;;;3.75;1.73;;;;;;;;;;5040632;28;20041;-59
2022/11/06 00:15:23;;;;;;;3.20;1.38;;;;;;;;;;5041322;28;20041;-61
2022/11/06 00:17:50;;;;;;;3.13;1.23;;;;;;;;;;5037684;28;20048;-61
2022/11/06 00:20:17;;;;;;;4.28;1.58;;;;;;;;;;5039762;28;20455;-64
2022/11/06 00:22:44;;;;;;;2.95;1.10;;;;;;;;;;5034045;28;20619;-63
2022/11/06 00:25:11;;;;;;;3.15;1.25;;;;;;;;;;5023114;28;20124;-60
2022/11/06 00:27:38;;;;;;;3.90;1.35;;;;;;;;;;5040283;28;20048;-61
2022/11/06 00:30:10;;;;;;;2.33;0.80;;;;;;;;;;5039789;28;20935;-61
2022/11/06 00:32:36;;;;;;;3.80;1.48;;;;;;;;;;5040334;28;20048;-60
2022/11/06 00:35:23;;;;;;;3.05;1.20;;;;;;;;;;5049682;28;20056;-62
2022/11/06 00:37:49;;;;;;;10.82;1.23;;;;;;;;;;5047228;28;20539;-64
2022/11/06 00:40:16;;;;;;;1.88;1.00;;;;;;;;;;5045111;28;20045;-63
2022/11/06 00:42:42;;;;;;;2.20;0.70;;;;;;;;;;5040341;28;20123;-62
2022/11/06 00:45:09;;;;;;;2.65;1.17;;;;;;;;;;5046324;28;20505;-63
2022/11/06 00:47:36;;;;;;;1.98;0.85;;;;;;;;;;5045979;28;20889;-61
2022/11/06 00:50:02;;;;;;;3.50;1.05;;;;;;;;;;5046852;28;20048;-62
2022/11/06 00:52:30;;;;;;;2.92;1.00;;;;;;;;;;5045515;28;20041;-64
2022/11/06 00:54:56;;;;;;;2.33;0.90;;;;;;;;;;5045022;28;20203;-62
2022/11/06 00:57:23;;;;;;;8.02;2.13;;;;;;;;;;5045031;28;20037;-63
2022/11/06 00:59:49;;;;;;;3.55;1.30;;;;;;;;;;5045615;28;20224;-66
2022/11/06 01:02:18;;;;;;;3.58;1.25;;;;;;;;;;5045880;28;20085;-58
2022/11/06 01:04:45;;;;;;;2.33;1.02;;;;;;;;;;5045662;28;20045;-62
2022/11/06 01:07:11;;;;;;;3.03;1.00;;;;;;;;;;5048253;28;20132;-62
2022/11/06 01:09:38;;;;;;;6.93;1.77;;;;;;;;;;5046341;28;20056;-63
2022/11/06 01:12:05;;;;;;;2.15;1.02;;;;;;;;;;5050263;28;20075;-63
2022/11/06 01:14:31;;;;;;;6.45;1.13;;;;;;;;;;5032457;28;20037;-63
2022/11/06 01:16:59;;;;;;;2.78;1.08;;;;;;;;;;5067637;28;20481;-64
2022/11/06 01:19:27;;;;;;;2.95;1.17;;;;;;;;;;5037535;28;21358;-65
2022/11/06 01:21:54;;;;;;;2.63;1.38;;;;;;;;;;5039241;28;20048;-64
2022/11/06 01:24:25;;;;;;;3.03;1.30;;;;;;;;;;5037672;28;20037;-63
2022/11/06 01:26:53;;;;;;;2.13;1.08;;;;;;;;;;5041855;28;20447;-62
2022/11/06 01:29:20;;;;;;;5.78;1.30;;;;;;;;;;5039034;28;20064;-65
2022/11/06 01:31:51;;;;;;;3.10;1.42;;;;;;;;;;5024132;28;20037;-63
2022/11/06 01:34:18;;;;;;;2.83;1.38;;;;;;;;;;5018227;28;20752;-65
2022/11/06 01:36:45;;;;;;;5.57;2.10;;;;;;;;;;5013202;28;20103;-61
2022/11/06 01:39:12;;;;;;;3.60;1.30;;;;;;;;;;5017782;28;20037;-63
2022/11/06 01:41:41;;;;;;;2.78;1.20;;;;;;;;;;5027506;28;20111;-63
2022/11/06 01:44:26;;;;;;;2.70;1.20;;;;;;;;;;5024982;28;20045;-63
2022/11/06 01:46:53;;;;;;;6.43;1.40;;;;;;;;;;5016672;28;20084;-61
2022/11/06 01:49:20;;;;;;;2.90;1.23;;;;;;;;;;5038171;28;20068;-65
2022/11/06 01:51:57;;;;;;;3.00;1.17;;;;;;;;;;5019390;28;20588;-62
2022/11/06 01:54:26;;;;;;;2.33;0.85;;;;;;;;;;5017614;28;20087;-64
2022/11/06 01:56:54;;;;;;;3.17;1.30;;;;;;;;;;5016861;28;20064;-62
2022/11/06 01:59:23;;;;;;;12.23;4.35;;;;;;;;;;5016651;28;20045;-64
2022/11/06 02:01:50;;;;;;;2.10;1.25;;;;;;;;;;5016817;28;20048;-65
2022/11/06 02:04:23;;;;;;;1.77;0.93;;;;;;;;;;5017786;28;20351;-63
2022/11/06 02:06:50;;;;;;;2.38;0.82;;;;;;;;;;5007518;28;20095;-63
2022/11/06 02:09:17;;;;;;;4.00;1.70;;;;;;;;;;5008065;28;20065;-62
2022/11/06 02:11:45;;;;;;;3.03;1.48;;;;;;;;;;5008441;28;20072;-64
2022/11/06 02:14:19;;;;;;;4.10;1.70;;;;;;;;;;5023000;28;20057;-67
2022/11/06 02:16:54;;;;;;;4.65;1.58;;;;;;;;;;5036267;28;20322;-64
2022/11/06 02:19:39;;;;;;;4.35;1.92;;;;;;;;;;5037846;28;20091;-65
2022/11/06 02:22:14;;;;;;;1.80;0.77;;;;;;;;;;5037332;28;20172;-64
2022/11/06 02:24:53;;;;;;;2.35;0.80;;;;;;;;;;5037726;28;20044;-65
2022/11/06 02:27:22;;;;;;;6.80;1.77;;;;;;;;;;5037121;28;20445;-67
2022/11/06 02:29:52;;;;;;;2.20;0.80;;;;;;;;;;5032122;28;20126;-66
2022/11/06 02:32:25;;;;;;;2.88;1.10;;;;;;;;;;5016776;28;20037;-65
2022/11/06 02:34:53;;;;;;;3.42;1.30;;;;;;;;;;5022036;28;20514;-67
2022/11/06 02:37:24;;;;;;;2.40;1.02;;;;;;;;;;5018566;28;20045;-66
2022/11/06 02:39:51;;;;;;;2.08;0.90;;;;;;;;;;5021661;28;20729;-65
2022/11/06 02:42:19;;;;;;;3.50;1.13;;;;;;;;;;5018359;28;20083;-65
2022/11/06 02:44:46;;;;;;;2.42;1.10;;;;;;;;;;5036151;28;20051;-66
2022/11/06 02:47:14;;;;;;;7.70;1.75;;;;;;;;;;5038595;28;20041;-62
2022/11/06 02:49:44;;;;;;;2.13;0.93;;;;;;;;;;5038542;28;20045;-63
2022/11/06 02:52:14;;;;;;;4.28;1.08;;;;;;;;;;5038314;28;20107;-64
2022/11/06 02:54:42;;;;;;;3.80;1.27;;;;;;;;;;5036301;28;20057;-65
2022/11/06 02:57:13;;;;;;;3.08;1.20;;;;;;;;;;5037612;28;20103;-66
2022/11/06 02:59:39;;;;;;;2.10;0.73;;;;;;;;;;5039349;28;20541;-66
2022/11/06 03:02:08;;;;;;;1.88;1.00;;;;;;;;;;5039085;28;20099;-65
2022/11/06 03:04:51;;;;;;;3.05;0.70;;;;;;;;;;5038006;28;20393;-65
2022/11/06 03:07:31;;;;;;;4.68;1.05;;;;;;;;;;5038081;28;20045;-64
2022/11/06 03:09:57;;;;;;;4.30;1.20;;;;;;;;;;5016348;28;20417;-63
2022/11/06 03:12:26;;;;;;;2.30;0.82;;;;;;;;;;5017851;28;20182;-63
2022/11/06 03:14:59;;;;;;;1.10;0.50;;;;;;;;;;5030018;28;20059;-65
2022/11/06 03:17:31;;;;;;;1.65;0.70;;;;;;;;;;5034848;28;20334;-64
2022/11/06 03:19:58;;;;;;;2.38;0.88;;;;;;;;;;5038165;28;20401;-64
2022/11/06 03:22:39;;;;;;;2.13;0.75;;;;;;;;;;5036738;28;20608;-64
2022/11/06 03:25:17;;;;;;;2.75;1.05;;;;;;;;;;5035972;28;20048;-63
2022/11/06 03:27:55;;;;;;;2.13;0.88;;;;;;;;;;5037529;28;20045;-65
2022/11/06 03:30:22;;;;;;;1.65;0.73;;;;;;;;;;5037017;28;20506;-64
2022/11/06 03:32:56;;;;;;;1.73;0.73;;;;;;;;;;5035869;28;20123;-64
2022/11/06 03:35:29;;;;;;;2.85;0.95;;;;;;;;;;5035628;28;20076;-63
2022/11/06 03:38:05;;;;;;;1.45;0.60;;;;;;;;;;5036863;28;20756;-64
2022/11/06 03:40:34;;;;;;;3.00;1.25;;;;;;;;;;5035920;28;20130;-64
2022/11/06 03:43:04;;;;;;;1.98;0.95;;;;;;;;;;5036296;28;20037;-64
2022/11/06 03:45:32;;;;;;;2.10;0.90;;;;;;;;;;5035794;28;20044;-64
2022/11/06 03:48:24;;;;;;;2.97;0.90;;;;;;;;;;5037430;28;20489;-62
2022/11/06 03:50:56;;;;;;;2.95;1.23;;;;;;;;;;5035670;28;20831;-62
2022/11/06 03:53:32;;;;;;;2.10;1.02;;;;;;;;;;5036914;28;20057;-65
2022/11/06 03:56:10;;;;;;;2.13;0.90;;;;;;;;;;5041276;28;20484;-64
2022/11/06 03:58:38;;;;;;;1.85;0.90;;;;;;;;;;5053042;28;20048;-64
2022/11/06 04:01:07;;;;;;;1.75;0.85;;;;;;;;;;5041970;28;20044;-62
2022/11/06 04:03:44;;;;;;;2.50;1.25;;;;;;;;;;5040803;28;20041;-64
2022/11/06 04:06:13;;;;;;;2.22;1.00;;;;;;;;;;5035224;28;20083;-64
2022/11/06 04:14:14;;;;;;;1.02;0.52;;;;;;;;;;5020549;28;20528;-64
2022/11/06 04:16:48;;;;;;;2.10;0.90;;;;;;;;;;5033189;28;20632;-61
2022/11/06 04:19:16;;;;;;;4.03;1.60;;;;;;;;;;5041762;28;20052;-61
2022/11/06 04:21:48;;;;;;;2.80;1.08;;;;;;;;;;5040743;28;20040;-61
2022/11/06 04:27:18;;;;;;;1.52;0.82;;;;;;;;;;5038808;28;20051;-63
2022/11/06 04:29:57;;;;;;;4.20;1.45;;;;;;;;;;5045416;28;20041;-64
2022/11/06 04:32:36;;;;;;;1.95;0.90;;;;;;;;;;5038631;28;20048;-65
2022/11/06 04:35:05;;;;;;;2.80;1.00;;;;;;;;;;5039288;28;20053;-65
2022/11/06 04:37:37;;;;;;;1.05;0.57;;;;;;;;;;5038468;28;20036;-64
2022/11/06 04:40:17;;;;;;;2.83;0.88;;;;;;;;;;5038488;28;20097;-65
2022/11/06 04:42:55;;;;;;;2.03;0.80;;;;;;;;;;5041337;28;20506;-64
2022/11/06 04:45:25;;;;;;;2.38;1.25;;;;;;;;;;5038881;28;20044;-66
2022/11/06 04:47:53;;;;;;;5.60;1.40;;;;;;;;;;5038970;28;20342;-65
2022/11/06 04:50:22;;;;;;;3.00;1.00;;;;;;;;;;5039127;28;20037;-64
2022/11/06 04:52:50;;;;;;;2.97;0.90;;;;;;;;;;5039261;28;20120;-64
2022/11/06 04:55:17;;;;;;;3.10;1.27;;;;;;;;;;5039469;28;20052;-64
2022/11/06 04:57:43;;;;;;;2.17;0.85;;;;;;;;;;5039802;28;20041;-64
2022/11/06 05:00:13;;;;;;;2.85;1.10;;;;;;;;;;5038184;28;20041;-65
2022/11/06 05:02:40;;;;;;;1.27;0.68;;;;;;;;;;5038357;28;20090;-65
2022/11/06 05:05:06;;;;;;;2.42;0.98;;;;;;;;;;5040565;28;20184;-64
2022/11/06 05:07:33;;;;;;;2.03;0.85;;;;;;;;;;5038583;28;20094;-64
2022/11/06 05:10:00;;;;;;;2.60;1.17;;;;;;;;;;5039311;28;20042;-66
2022/11/06 05:12:26;;;;;;;2.28;0.75;;;;;;;;;;5049131;28;20136;-65
2022/11/06 05:14:53;;;;;;;2.80;0.60;;;;;;;;;;5041185;28;20060;-63
2022/11/06 05:17:19;;;;;;;3.28;1.20;;;;;;;;;;5040753;28;20050;-64
2022/11/06 05:19:46;;;;;;;0.85;0.43;;;;;;;;;;5042073;28;20064;-64
2022/11/06 05:25:06;;;;;;;2.70;1.15;;;;;;;;;;5038493;28;20044;-64
2022/11/06 05:27:32;;;;;;;1.90;0.60;;;;;;;;;;5049652;28;20509;-63
2022/11/06 05:29:59;;;;;;;2.75;1.08;;;;;;;;;;5043791;28;20040;-65
2022/11/06 05:32:25;;;;;;;3.25;1.35;;;;;;;;;;5029873;28;20029;-64
2022/11/06 05:34:52;;;;;;;2.97;0.98;;;;;;;;;;5046241;28;20424;-63
2022/11/06 05:37:19;;;;;;;2.25;0.90;;;;;;;;;;5055014;28;20254;-65
2022/11/06 05:39:46;;;;;;;3.05;0.95;;;;;;;;;;5048604;28;20390;-67
2022/11/06 05:42:13;;;;;;;1.73;0.75;;;;;;;;;;5052733;28;20037;-64
2022/11/06 05:44:39;;;;;;;2.15;0.93;;;;;;;;;;5042377;28;24892;-66
2022/11/06 05:47:06;;;;;;;2.47;1.00;;;;;;;;;;5040761;28;20040;-63
2022/11/06 05:49:33;;;;;;;2.55;1.05;;;;;;;;;;5038335;28;20068;-65
2022/11/06 05:51:59;;;;;;;2.15;0.80;;;;;;;;;;5039737;28;20041;-65
2022/11/06 05:54:26;;;;;;;5.35;1.27;;;;;;;;;;5035977;28;20919;-65
2022/11/06 05:56:52;;;;;;;1.38;0.70;;;;;;;;;;5037551;28;20091;-66
2022/11/06 05:59:19;;;;;;;2.33;0.90;;;;;;;;;;5032357;28;20144;-66
2022/11/06 06:01:47;;;;;;;2.05;0.85;;;;;;;;;;5018375;28;20037;-65
2022/11/06 06:04:13;;;;;;;1.13;0.50;;;;;;;;;;5017525;28;20833;-65
2022/11/06 06:06:40;;;;;;;2.53;0.95;;;;;;;;;;5018776;28;20049;-65
2022/11/06 06:09:06;;;;;;;1.85;0.90;;;;;;;;;;5018765;28;20190;-65
2022/11/06 06:11:33;;;;;;;2.75;0.80;;;;;;;;;;5027328;28;20067;-63
2022/11/06 06:14:00;;;;;;;2.15;1.33;;;;;;;;;;5032759;28;20133;-65
2022/11/06 06:16:27;;;;;;;1.30;0.52;;;;;;;;;;5017472;28;20041;-66
2022/11/06 06:18:54;;;;;;;2.90;1.13;;;;;;;;;;5018179;28;20111;-65
2022/11/06 06:21:20;;;;;;;2.63;1.00;;;;;;;;;;5030388;28;20083;-66
2022/11/06 06:23:47;;;;;;;1.92;0.98;;;;;;;;;;5018154;28;20045;-64
2022/11/06 06:26:13;;;;;;;2.50;0.85;;;;;;;;;;5019011;28;20036;-61
2022/11/06 06:28:40;;;;;;;2.20;0.85;;;;;;;;;;5017385;28;20124;-62
2022/11/06 06:31:08;;;;;;;2.30;0.45;;;;;;;;;;5007337;28;20034;-62
2022/11/06 06:33:35;;;;;;;3.78;1.25;;;;;;;;;;5031787;28;20055;-64
2022/11/06 06:36:05;;;;;;;1.08;0.50;;;;;;;;;;5050559;28;20076;-60
2022/11/06 06:38:32;;;;;;;10.32;1.55;;;;;;;;;;5037240;28;20056;-63
2022/11/06 06:41:03;;;;;;;3.03;0.98;;;;;;;;;;5039277;28;20057;-61
2022/11/06 06:43:30;;;;;;;2.55;0.90;;;;;;;;;;5024750;28;21418;-62
2022/11/06 06:46:00;;;;;;;1.73;0.82;;;;;;;;;;5038879;28;20134;-60
2022/11/06 06:48:27;;;;;;;2.13;0.80;;;;;;;;;;5035303;28;20464;-63
2022/11/06 06:50:56;;;;;;;1.40;0.65;;;;;;;;;;5036429;28;20410;-63
2022/11/06 06:53:23;;;;;;;1.67;0.82;;;;;;;;;;5037658;28;20068;-62
2022/11/06 06:55:50;;;;;;;2.33;0.93;;;;;;;;;;5036898;28;20033;-62
2022/11/06 06:58:17;;;;;;;2.50;1.10;;;;;;;;;;5037674;28;20380;-62
2022/11/06 07:00:43;;;;;;;2.65;1.10;;;;;;;;;;5038352;28;20218;-62
2022/11/06 07:03:10;;;;;;;2.33;0.90;;;;;;;;;;5025086;28;22039;-62
2022/11/06 07:05:37;;;;;;;2.47;0.80;;;;;;;;;;5016995;28;20041;-59
2022/11/06 07:08:03;;;;;;;6.22;1.00;;;;;;;;;;5017469;28;20855;-64
2022/11/06 07:10:31;;;;;;;2.75;1.17;;;;;;;;;;5017028;28;20119;-61
2022/11/06 07:13:01;;;;;;;2.85;0.90;;;;;;;;;;5016947;28;20364;-61
2022/11/06 07:15:28;;;;;;;1.77;0.75;;;;;;;;;;5017002;28;20172;-61
2022/11/06 07:17:54;;;;;;;3.55;0.88;;;;;;;;;;5017842;28;20033;-62
2022/11/06 07:20:21;;;;;;;2.90;0.90;;;;;;;;;;5030709;28;20042;-61
2022/11/06 07:22:47;;;;;;;1.13;0.47;;;;;;;;;;5019200;28;20078;-62
2022/11/06 07:25:14;;;;;;;0.82;0.40;;;;;;;;;;5037809;28;20508;-64
2022/11/06 07:27:41;;;;;;;1.23;0.60;;;;;;;;;;5027811;28;20037;-63
2022/11/06 07:30:07;;;;;;;2.95;1.05;;;;;;;;;;5053467;28;20490;-64
2022/11/06 07:32:34;;;;;;;2.70;0.75;;;;;;;;;;5040206;28;20125;-64
2022/11/06 07:35:01;;;;;;;2.38;0.93;;;;;;;;;;5041897;28;20042;-62
2022/11/06 07:37:27;;;;;;;1.38;0.50;;;;;;;;;;5041368;28;20453;-60
2022/11/06 07:39:54;;;;;;;6.57;1.35;;;;;;;;;;5041115;28;20171;-62
2022/11/06 07:42:20;;;;;;;1.23;0.60;;;;;;;;;;5040970;28;20041;-63
2022/11/06 07:44:47;;;;;;;0.55;0.32;;;;;;;;;;5042322;28;20033;-60
2022/11/06 07:47:14;;;;;;;2.47;0.73;;;;;;;;;;5040625;28;20056;-64
2022/11/06 07:49:41;;;;;;;2.15;0.85;;;;;;;;;;5041009;28;20090;-64
2022/11/06 07:52:08;;;;;;;1.58;0.70;;;;;;;;;;5040118;28;20049;-66
2022/11/06 07:54:35;;;;;;;1.75;0.55;;;;;;;;;;5040465;28;20053;-61
2022/11/06 07:57:01;;;;;;;1.60;0.57;;;;;;;;;;5040838;28;20503;-64
2022/11/06 07:59:28;;;;;;;3.40;0.85;;;;;;;;;;5039643;28;20123;-63
2022/11/06 08:01:54;;;;;;;2.75;0.90;;;;;;;;;;5039641;28;20123;-65
2022/11/06 08:04:21;;;;;;;1.85;0.90;;;;;;;;;;5040665;28;20710;-62
2022/11/06 08:06:47;;;;;;;1.70;0.70;;;;;;;;;;5041534;28;20033;-61
2022/11/06 08:09:15;;;;;;;1.58;0.57;;;;;;;;;;5049285;28;20053;-62
2022/11/06 08:11:41;;;;;;;1.90;0.68;;;;;;;;;;5040289;28;20052;-64
2022/11/06 08:14:09;;;;;;;1.73;0.90;;;;;;;;;;5041636;28;20064;-63
2022/11/06 08:16:36;;;;;;;1.95;0.70;;;;;;;;;;5038441;28;20052;-62
2022/11/06 08:19:02;;;;;;;1.77;0.57;;;;;;;;;;5040326;28;20059;-65
2022/11/06 08:21:29;;;;;;;2.90;0.93;;;;;;;;;;5039052;28;20040;-64
2022/11/06 08:23:56;;;;;;;1.75;0.68;;;;;;;;;;5042742;28;20679;-64
2022/11/06 08:26:22;;;;;;;1.70;0.65;;;;;;;;;;5039607;28;20041;-63
2022/11/06 08:28:49;;;;;;;0.90;0.45;;;;;;;;;;5040944;28;20065;-63
2022/11/06 08:31:16;;;;;;;1.83;0.73;;;;;;;;;;5040590;28;20067;-62
2022/11/06 08:33:42;;;;;;;2.30;0.75;;;;;;;;;;5040608;28;20060;-63
2022/11/06 08:36:09;;;;;;;2.72;1.13;;;;;;;;;;5041387;28;20169;-62
2022/11/06 08:38:36;;;;;;;3.25;1.08;;;;;;;;;;5043119;28;20044;-63
2022/11/06 08:41:07;;;;;;;1.33;0.63;;;;;;;;;;5041532;28;21808;-62
2022/11/06 08:43:33;;;;;;;1.55;0.65;;;;;;;;;;5041410;28;21083;-61
2022/11/06 08:46:00;;;;;;;1.25;0.65;;;;;;;;;;5042617;28;20115;-61
2022/11/06 08:48:27;;;;;;;1.05;0.63;;;;;;;;;;5042532;28;20064;-63
2022/11/06 08:50:53;;;;;;;1.83;0.77;;;;;;;;;;5040837;28;20029;-61
2022/11/06 08:53:20;;;;;;;2.30;1.67;;;;;;;;;;5040048;28;20044;-63
2022/11/06 08:55:47;;;;;;;3.42;0.70;;;;;;;;;;5047606;28;20033;-62
2022/11/06 08:58:13;;;;;;;1.60;0.68;;;;;;;;;;5039248;28;20595;-61
2022/11/06 09:00:40;;;;;;;1.05;0.50;;;;;;;;;;5040914;28;20137;-63
2022/11/06 09:03:08;;;;;;;0.75;0.45;;;;;;;;;;5040273;28;21686;-63
2022/11/06 09:05:35;;;;;;;1.70;0.60;;;;;;;;;;5023804;28;20065;-62
2022/11/06 09:08:23;;;;;;;1.15;0.57;;;;;;;;;;4999797;28;20039;-64
2022/11/06 09:10:49;;;;;;;1.10;0.60;;;;;;;;;;5012691;28;20053;-64
2022/11/06 09:13:16;;;;;;;2.58;0.90;;;;;;;;;;5015926;28;20037;-61
2022/11/06 09:15:43;;;;;;;2.03;0.70;;;;;;;;;;5012865;28;20056;-62
2022/11/06 09:18:11;;;;;;;2.05;0.65;;;;;;;;;;5014331;28;20109;-62
2022/11/06 09:20:37;;;;;;;1.08;0.47;;;;;;;;;;5013285;28;20061;-62
2022/11/06 09:23:05;;;;;;;1.65;0.68;;;;;;;;;;5016124;28;20446;-61
2022/11/06 09:25:32;;;;;;;2.40;0.95;;;;;;;;;;5015202;28;20037;-64
2022/11/06 09:27:59;;;;;;;1.40;0.68;;;;;;;;;;5017054;28;20041;-62
2022/11/06 09:30:26;;;;;;;0.68;0.52;;;;;;;;;;5013811;28;20152;-62
2022/11/06 09:32:54;;;;;;;1.50;0.73;;;;;;;;;;5014512;28;21679;-61
2022/11/06 09:35:22;;;;;;;1.65;0.60;;;;;;;;;;5015264;28;20469;-61
2022/11/06 09:37:49;;;;;;;1.88;1.02;;;;;;;;;;5017131;28;20048;-62
2022/11/06 09:40:20;;;;;;;0.82;0.55;;;;;;;;;;5013379;28;20186;-63
2022/11/06 09:42:52;;;;;;;1.02;0.50;;;;;;;;;;5015996;28;20038;-62
2022/11/06 09:45:24;;;;;;;0.80;0.50;;;;;;;;;;5011287;28;20555;-62
2022/11/06 09:47:54;;;;;;;1.23;0.52;;;;;;;;;;4996126;28;20475;-63
2022/11/06 09:50:24;;;;;;;1.00;0.52;;;;;;;;;;4994064;28;20040;-63
2022/11/06 09:52:54;;;;;;;0.70;0.43;;;;;;;;;;4998118;28;20044;-61
2022/11/06 09:55:25;;;;;;;1.42;0.73;;;;;;;;;;4990217;28;20054;-62
2022/11/06 09:57:59;;;;;;;1.02;0.70;;;;;;;;;;4998832;28;20037;-63
2022/11/06 10:00:26;;;;;;;1.92;0.77;;;;;;;;;;4996174;28;20148;-61
2022/11/06 10:03:00;;;;;;;3.08;0.52;;;;;;;;;;5001163;28;20065;-62
2022/11/06 10:05:32;;;;;;;0.75;0.35;;;;;;;;;;4999330;28;20127;-63
2022/11/06 10:08:07;;;;;;;1.45;0.60;;;;;;;;;;5000853;28;20137;-62
2022/11/06 10:10:41;;;;;;;2.58;0.82;;;;;;;;;;5027280;28;20048;-63
2022/11/06 10:13:17;;;;;;;1.48;0.63;;;;;;;;;;5040473;28;20107;-64
2022/11/06 10:16:06;;;;;;;1.67;0.70;;;;;;;;;;5039647;28;20055;-64
2022/11/06 10:18:35;;;;;;;1.90;0.82;;;;;;;;;;5039104;28;20105;-63
2022/11/06 10:21:09;;;;;;;0.30;0.30;;;;;;;;;;5038703;28;20162;-64
2022/11/06 10:23:35;;;;;;;1.73;0.93;;;;;;;;;;5037227;28;20505;-63
2022/11/06 10:26:02;;;;;;;1.00;0.55;;;;;;;;;;5040552;28;21615;-62
2022/11/06 10:28:47;;;;;;;0.85;0.40;;;;;;;;;;5037497;28;20041;-61
2022/11/06 10:31:23;;;;;;;1.23;0.52;;;;;;;;;;5038892;28;20123;-62
2022/11/06 10:33:58;;;;;;;2.67;0.80;;;;;;;;;;5038044;28;20086;-64
2022/11/06 10:36:44;;;;;;;1.25;0.52;;;;;;;;;;5035973;28;20047;-63
2022/11/06 10:39:26;;;;;;;0.65;0.32;;;;;;;;;;5036978;28;21663;-60
2022/11/06 10:41:55;;;;;;;1.33;0.60;;;;;;;;;;5036328;28;20041;-61
2022/11/06 10:44:25;;;;;;;0.60;0.43;;;;;;;;;;5037398;28;20041;-62
2022/11/06 10:47:04;;;;;;;2.80;1.00;;;;;;;;;;5038473;28;21027;-63
2022/11/06 10:49:40;;;;;;;0.43;0.40;;;;;;;;;;5037625;28;20089;-63
2022/11/06 10:52:28;;;;;;;2.38;0.93;;;;;;;;;;5039998;28;20171;-62
2022/11/06 10:54:58;;;;;;;1.52;0.57;;;;;;;;;;5036166;28;20146;-62
2022/11/06 10:57:24;;;;;;;0.45;0.30;;;;;;;;;;5038127;28;20042;-61
2022/11/06 10:59:51;;;;;;;3.05;0.80;;;;;;;;;;5038149;28;20043;-60
2022/11/06 11:02:29;;;;;;;1.77;0.63;;;;;;;;;;5037105;28;20042;-59
2022/11/06 11:04:56;;;;;;;0.55;0.32;;;;;;;;;;5036482;28;20053;-63
2022/11/06 11:07:23;;;;;;;2.85;1.08;;;;;;;;;;5040277;28;20497;-61
2022/11/06 11:09:50;;;;;;;2.17;0.93;;;;;;;;;;5040488;28;20508;-63
2022/11/06 11:12:34;;;;;;;0.55;0.40;;;;;;;;;;5042473;28;20104;-63
2022/11/06 11:15:12;;;;;;;1.15;0.45;;;;;;;;;;5041249;28;20426;-62
2022/11/06 11:17:39;;;;;;;0.68;0.40;;;;;;;;;;5039928;28;20041;-63
2022/11/06 11:20:26;;;;;;;1.48;0.70;;;;;;;;;;5040991;28;20564;-63
2022/11/06 11:23:22;;;;;;;1.38;0.47;;;;;;;;;;5041640;28;20135;-63
2022/11/06 11:25:53;;;;;;;1.48;0.70;;;;;;;;;;5031528;28;20048;-63
2022/11/06 11:28:26;;;;;;;1.20;0.60;;;;;;;;;;5041073;28;20033;-61
2022/11/06 11:30:54;;;;;;;1.67;0.60;;;;;;;;;;5057630;28;20036;-61
2022/11/06 11:33:22;;;;;;;0.52;0.40;;;;;;;;;;5041937;28;20442;-62
2022/11/06 11:35:50;;;;;;;1.40;0.50;;;;;;;;;;5041124;28;20063;-61
2022/11/06 11:38:18;;;;;;;0.85;0.38;;;;;;;;;;5042085;28;20041;-63
2022/11/06 11:40:44;;;;;;;0.55;0.30;;;;;;;;;;5039320;28;22437;-62
2022/11/06 11:43:17;;;;;;;1.10;0.70;;;;;;;;;;5042027;28;20029;-62
2022/11/06 11:45:45;;;;;;;2.22;1.23;;;;;;;;;;5040046;28;20045;-63
2022/11/06 11:48:12;;;;;;;0.50;0.35;;;;;;;;;;5040810;28;20151;-61
2022/11/06 11:50:39;;;;;;;1.00;0.60;;;;;;;;;;5039798;28;20396;-60
2022/11/06 11:53:11;;;;;;;1.35;0.57;;;;;;;;;;5041293;28;20122;-62
2022/11/06 11:55:40;;;;;;;0.65;0.30;;;;;;;;;;5041260;28;20076;-63
2022/11/06 11:58:17;;;;;;;0.63;0.43;;;;;;;;;;5041774;28;20083;-65
2022/11/06 12:00:57;;;;;;;1.30;0.50;;;;;;;;;;5031776;28;20037;-62
2022/11/06 12:03:26;;;;;;;1.70;0.73;;;;;;;;;;5040697;28;20037;-61
2022/11/06 12:05:53;;;;;;;1.42;0.80;;;;;;;;;;5041602;28;20063;-62
2022/11/06 12:08:22;;;;;;;3.17;0.73;;;;;;;;;;5040238;28;20044;-62
2022/11/06 12:10:49;;;;;;;2.15;0.88;;;;;;;;;;5040410;28;20139;-64
2022/11/06 12:13:17;;;;;;;1.15;0.50;;;;;;;;;;5041796;28;20832;-64
2022/11/06 12:15:44;;;;;;;2.95;0.88;;;;;;;;;;5050227;28;20125;-61
2022/11/06 12:18:16;;;;;;;1.58;0.63;;;;;;;;;;5042665;28;20404;-63
2022/11/06 12:20:49;;;;;;;0.98;0.47;;;;;;;;;;5056407;28;20471;-61
2022/11/06 12:23:16;;;;;;;;;;;;;;;;;;5042380;28;20135;-62
2022/11/06 12:25:44;;;;;;;0.88;0.50;;;;;;;;;;5052059;28;20434;-63
2022/11/06 12:28:14;;;;;;;0.55;0.30;;;;;;;;;;5039728;28;20052;-63
2022/11/06 12:30:42;;;;;;;2.10;0.88;;;;;;;;;;5042214;28;20036;-63
2022/11/06 12:33:12;;;;;;;1.20;0.77;;;;;;;;;;5040611;28;20045;-61
2022/11/06 12:35:46;;;;;;;0.80;0.40;;;;;;;;;;5047252;28;20179;-64
2022/11/06 12:38:12;;;;;;;3.53;1.08;;;;;;;;;;5041619;28;20036;-63
2022/11/06 12:40:40;;;;;;;1.48;0.70;;;;;;;;;;5041857;28;20071;-63
2022/11/06 12:43:33;;;;;;;1.02;0.52;;;;;;;;;;5045975;28;20081;-64
2022/11/06 12:46:00;;;;;;;1.60;0.75;;;;;;;;;;5051150;28;20072;-65
2022/11/06 12:48:34;;;;;;;0.80;0.40;;;;;;;;;;5040374;28;20056;-63
2022/11/06 12:51:01;;;;;;;0.80;0.43;;;;;;;;;;5040413;28;20045;-64
2022/11/06 12:53:50;;;;;;;0.63;0.32;;;;;;;;;;5040293;28;20033;-63
2022/11/06 12:56:22;;;;;;;0.32;0.30;;;;;;;;;;5039084;28;20049;-64
2022/11/06 12:58:49;;;;;;;0.95;0.45;;;;;;;;;;5039904;28;20069;-64
2022/11/06 13:01:20;;;;;;;0.40;0.35;;;;;;;;;;5040770;28;20047;-62
2022/11/06 13:03:49;;;;;;;1.48;0.68;;;;;;;;;;5036881;28;20474;-63
2022/11/06 13:06:27;;;;;;;1.40;0.70;;;;;;;;;;5054239;28;20041;-63
2022/11/06 13:08:57;;;;;;;0.73;0.50;;;;;;;;;;5038924;28;20048;-62
2022/11/06 13:11:24;;;;;;;0.93;0.45;;;;;;;;;;5060334;28;20564;-62
2022/11/06 13:14:04;;;;;;;1.42;0.63;;;;;;;;;;5038436;28;20046;-65
2022/11/06 13:16:35;;;;;;;1.35;0.63;;;;;;;;;;5039694;28;20072;-59
2022/11/06 13:19:02;;;;;;;1.90;0.60;;;;;;;;;;5041598;28;20098;-60
2022/11/06 13:21:33;;;;;;;2.13;0.90;;;;;;;;;;5038677;28;20167;-61
2022/11/06 13:24:05;;;;;;;1.50;0.40;;;;;;;;;;5039077;28;20044;-62
2022/11/06 13:26:44;;;;;;;1.05;0.50;;;;;;;;;;5040928;28;20048;-62
2022/11/06 13:29:12;;;;;;;0.47;0.43;;;;;;;;;;5032822;28;20048;-61
2022/11/06 13:31:39;;;;;;;0.60;0.60;;;;;;;;;;5037287;28;20477;-61
2022/11/06 13:34:06;;;;;;;0.43;0.40;;;;;;;;;;5038104;28;20048;-64
2022/11/06 13:36:35;;;;;;;0.63;0.40;;;;;;;;;;5038784;28;20037;-63
2022/11/06 13:39:13;;;;;;;0.30;0.30;;;;;;;;;;5038629;28;20060;-64
2022/11/06 13:41:40;;;;;;;0.88;0.47;;;;;;;;;;5038078;28;20037;-61
2022/11/06 13:44:10;;;;;;;0.77;0.50;;;;;;;;;;5039075;28;20194;-62
2022/11/06 13:46:42;;;;;;;0.82;0.47;;;;;;;;;;5040522;28;20040;-61
2022/11/06 13:49:27;;;;;;;0.85;0.40;;;;;;;;;;5038637;28;20655;-64
2022/11/06 13:51:56;;;;;;;0.80;0.45;;;;;;;;;;5037372;28;20453;-63
2022/11/06 13:54:41;;;;;;;0.75;0.40;;;;;;;;;;5038413;28;20053;-63
2022/11/06 13:57:26;;;;;;;0.47;0.32;;;;;;;;;;5039025;28;20079;-65
2022/11/06 13:59:59;;;;;;;1.08;0.40;;;;;;;;;;5022694;28;20120;-64
2022/11/06 14:02:43;;;;;;;2.22;0.65;;;;;;;;;;5020724;28;20041;-63
2022/11/06 14:05:19;;;;;;;1.63;0.70;;;;;;;;;;5019068;28;20037;-64
2022/11/06 14:07:47;;;;;;;0.47;0.30;;;;;;;;;;5018968;28;20052;-63
2022/11/06 14:10:20;;;;;;;2.13;0.93;;;;;;;;;;5018730;28;20115;-60
2022/11/06 14:12:47;;;;;;;1.15;0.60;;;;;;;;;;5030418;28;20037;-62
2022/11/06 14:15:19;;;;;;;1.45;0.75;;;;;;;;;;5020001;28;20978;-63
2022/11/06 14:17:56;;;;;;;0.40;0.40;;;;;;;;;;5034140;28;20104;-63
2022/11/06 14:20:41;;;;;;;0.77;0.57;;;;;;;;;;5017868;28;20041;-65
2022/11/06 14:23:26;;;;;;;1.50;0.93;;;;;;;;;;5022759;28;20044;-63
2022/11/06 14:26:03;;;;;;;1.33;0.68;;;;;;;;;;5017995;28;20475;-63
2022/11/06 14:28:34;;;;;;;1.33;0.55;;;;;;;;;;5013743;28;20041;-63
2022/11/06 14:31:00;;;;;;;0.90;0.70;;;;;;;;;;5013881;28;20045;-62
2022/11/06 14:33:42;;;;;;;0.38;0.30;;;;;;;;;;5016030;28;20034;-64
2022/11/06 14:36:28;;;;;;;0.73;0.50;;;;;;;;;;5014656;28;20041;-62
2022/11/06 14:38:55;;;;;;;0.32;0.30;;;;;;;;;;5029869;28;20041;-61
2022/11/06 14:41:34;;;;;;;1.60;0.75;;;;;;;;;;5038334;28;20033;-62
2022/11/06 14:44:19;;;;;;;0.43;0.38;;;;;;;;;;5041761;28;20633;-60
2022/11/06 14:46:50;;;;;;;6.43;1.38;;;;;;;;;;5038751;28;20044;-61
2022/11/06 14:49:28;;;;;;;3.10;1.13;;;;;;;;;;5038131;28;20551;-61
2022/11/06 14:52:00;;;;;;;0.82;0.70;;;;;;;;;;5044428;28;20519;-61
2022/11/06 14:54:26;;;;;;;0.80;0.45;;;;;;;;;;5036849;28;20589;-62
2022/11/06 14:56:54;;;;;;;3.00;0.75;;;;;;;;;;5040944;28;20514;-64
2022/11/06 14:59:34;;;;;;;2.67;1.00;;;;;;;;;;5018001;28;20131;-63
2022/11/06 15:02:05;;;;;;;1.67;0.82;;;;;;;;;;5017582;28;20043;-65
2022/11/06 15:04:33;;;;;;;1.55;0.95;;;;;;;;;;5040258;28;20370;-63
2022/11/06 15:07:07;;;;;;;0.55;0.40;;;;;;;;;;5045908;28;20070;-61
2022/11/06 15:09:39;;;;;;;1.27;0.57;;;;;;;;;;5036528;28;20052;-62
2022/11/06 15:12:07;;;;;;;0.30;0.22;;;;;;;;;;5039606;28;20042;-62
2022/11/06 15:14:33;;;;;;;0.65;0.50;;;;;;;;;;5039171;28;20059;-67